sensor_id;sensor_type;location;lat;lon;timestamp;P1;durP1;ratioP1;P2;durP2;ratioP2
74577;SDS011;63173;49.086;33.418;2023-06-10T00:01:50;12.77;;;4.10;;
74577;SDS011;63173;49.086;33.418;2023-06-10T00:04:15;10.60;;;3.90;;
74577;SDS011;63173;49.086;33.418;2023-06-10T00:06:44;9.43;;;3.40;;
74577;SDS011;63173;49.086;33.418;2023-06-10T00:09:09;10.45;;;3.97;;
74577;SDS011;63173;49.086;33.418;2023-06-10T00:11:39;11.50;;;4.13;;
74577;SDS011;63173;49.086;33.418;2023-06-10T00:14:05;10.88;;;4.35;;
74577;SDS011;63173;49.086;33.418;2023-06-10T00:16:31;14.38;;;4.70;;
74577;SDS011;63173;49.086;33.418;2023-06-10T00:18:59;13.88;;;4.10;;
74577;SDS011;63173;49.086;33.418;2023-06-10T00:21:27;9.75;;;3.70;;
74577;SDS011;63173;49.086;33.418;2023-06-10T00:23:53;9.32;;;4.22;;
74577;SDS011;63173;49.086;33.418;2023-06-10T00:26:20;13.82;;;4.00;;
74577;SDS011;63173;49.086;33.418;2023-06-10T00:28:48;8.75;;;3.83;;
74577;SDS011;63173;49.086;33.418;2023-06-10T00:31:14;8.05;;;3.97;;
74577;SDS011;63173;49.086;33.418;2023-06-10T00:33:40;9.52;;;4.10;;
74577;SDS011;63173;49.086;33.418;2023-06-10T00:36:05;13.25;;;4.10;;
74577;SDS011;63173;49.086;33.418;2023-06-10T00:38:31;9.43;;;4.40;;
74577;SDS011;63173;49.086;33.418;2023-06-10T00:40:57;8.52;;;4.40;;
74577;SDS011;63173;49.086;33.418;2023-06-10T00:43:22;14.05;;;4.40;;
74577;SDS011;63173;49.086;33.418;2023-06-10T00:45:48;10.15;;;4.50;;
74577;SDS011;63173;49.086;33.418;2023-06-10T00:48:13;12.85;;;4.75;;
74577;SDS011;63173;49.086;33.418;2023-06-10T00:50:39;16.73;;;4.70;;
74577;SDS011;63173;49.086;33.418;2023-06-10T00:53:04;13.27;;;4.75;;
74577;SDS011;63173;49.086;33.418;2023-06-10T00:55:31;11.57;;;5.35;;
74577;SDS011;63173;49.086;33.418;2023-06-10T00:57:57;9.80;;;4.75;;
74577;SDS011;63173;49.086;33.418;2023-06-10T01:00:24;10.75;;;4.28;;
74577;SDS011;63173;49.086;33.418;2023-06-10T01:02:50;13.52;;;4.88;;
74577;SDS011;63173;49.086;33.418;2023-06-10T01:07:54;10.07;;;4.07;;
74577;SDS011;63173;49.086;33.418;2023-06-10T01:10:30;10.65;;;4.07;;
74577;SDS011;63173;49.086;33.418;2023-06-10T01:13:02;14.07;;;4.00;;
74577;SDS011;63173;49.086;33.418;2023-06-10T01:15:31;9.00;;;4.50;;
74577;SDS011;63173;49.086;33.418;2023-06-10T01:18:01;11.45;;;3.83;;
74577;SDS011;63173;49.086;33.418;2023-06-10T01:20:29;10.38;;;3.67;;
74577;SDS011;63173;49.086;33.418;2023-06-10T01:22:57;12.30;;;3.88;;
74577;SDS011;63173;49.086;33.418;2023-06-10T01:25:24;13.45;;;4.38;;
74577;SDS011;63173;49.086;33.418;2023-06-10T01:27:55;11.60;;;4.20;;
74577;SDS011;63173;49.086;33.418;2023-06-10T01:30:32;8.32;;;3.92;;
74577;SDS011;63173;49.086;33.418;2023-06-10T01:33:05;8.38;;;4.13;;
74577;SDS011;63173;49.086;33.418;2023-06-10T01:35:34;13.13;;;4.18;;
74577;SDS011;63173;49.086;33.418;2023-06-10T01:38:03;11.48;;;4.28;;
74577;SDS011;63173;49.086;33.418;2023-06-10T01:40:29;11.95;;;4.32;;
74577;SDS011;63173;49.086;33.418;2023-06-10T01:42:56;10.00;;;4.20;;
74577;SDS011;63173;49.086;33.418;2023-06-10T01:45:21;11.48;;;4.60;;
74577;SDS011;63173;49.086;33.418;2023-06-10T01:47:47;7.03;;;3.90;;
74577;SDS011;63173;49.086;33.418;2023-06-10T01:50:12;13.77;;;4.50;;
74577;SDS011;63173;49.086;33.418;2023-06-10T01:52:37;8.98;;;4.30;;
74577;SDS011;63173;49.086;33.418;2023-06-10T01:55:03;10.07;;;4.22;;
74577;SDS011;63173;49.086;33.418;2023-06-10T01:57:29;15.35;;;4.15;;
74577;SDS011;63173;49.086;33.418;2023-06-10T01:59:55;9.52;;;4.43;;
74577;SDS011;63173;49.086;33.418;2023-06-10T02:02:20;10.23;;;4.82;;
74577;SDS011;63173;49.086;33.418;2023-06-10T02:04:47;7.97;;;4.05;;
74577;SDS011;63173;49.086;33.418;2023-06-10T02:07:12;9.48;;;3.88;;
74577;SDS011;63173;49.086;33.418;2023-06-10T02:09:38;12.27;;;4.35;;
74577;SDS011;63173;49.086;33.418;2023-06-10T02:12:03;10.73;;;4.13;;
74577;SDS011;63173;49.086;33.418;2023-06-10T02:14:30;7.70;;;4.15;;
74577;SDS011;63173;49.086;33.418;2023-06-10T02:16:57;7.35;;;4.20;;
74577;SDS011;63173;49.086;33.418;2023-06-10T02:19:22;12.20;;;4.35;;
74577;SDS011;63173;49.086;33.418;2023-06-10T02:21:48;12.80;;;4.50;;
74577;SDS011;63173;49.086;33.418;2023-06-10T02:24:14;10.02;;;4.35;;
74577;SDS011;63173;49.086;33.418;2023-06-10T02:26:40;12.05;;;4.05;;
74577;SDS011;63173;49.086;33.418;2023-06-10T02:29:05;10.10;;;4.20;;
74577;SDS011;63173;49.086;33.418;2023-06-10T02:31:31;8.63;;;4.20;;
74577;SDS011;63173;49.086;33.418;2023-06-10T02:33:56;11.93;;;4.40;;
74577;SDS011;63173;49.086;33.418;2023-06-10T02:36:22;12.90;;;4.20;;
74577;SDS011;63173;49.086;33.418;2023-06-10T02:38:49;9.40;;;4.03;;
74577;SDS011;63173;49.086;33.418;2023-06-10T02:41:14;7.43;;;4.18;;
74577;SDS011;63173;49.086;33.418;2023-06-10T02:43:40;11.05;;;4.30;;
74577;SDS011;63173;49.086;33.418;2023-06-10T02:46:05;8.70;;;3.85;;
74577;SDS011;63173;49.086;33.418;2023-06-10T02:48:31;10.10;;;4.13;;
74577;SDS011;63173;49.086;33.418;2023-06-10T02:50:56;8.27;;;3.95;;
74577;SDS011;63173;49.086;33.418;2023-06-10T02:53:22;10.25;;;4.40;;
74577;SDS011;63173;49.086;33.418;2023-06-10T02:55:47;8.82;;;4.22;;
74577;SDS011;63173;49.086;33.418;2023-06-10T02:58:12;10.18;;;4.18;;
74577;SDS011;63173;49.086;33.418;2023-06-10T03:00:38;10.27;;;4.40;;
74577;SDS011;63173;49.086;33.418;2023-06-10T03:03:06;10.77;;;4.10;;
74577;SDS011;63173;49.086;33.418;2023-06-10T03:05:32;12.32;;;4.18;;
74577;SDS011;63173;49.086;33.418;2023-06-10T03:07:57;7.40;;;3.67;;
74577;SDS011;63173;49.086;33.418;2023-06-10T03:10:23;8.30;;;4.03;;
74577;SDS011;63173;49.086;33.418;2023-06-10T03:12:49;7.80;;;4.50;;
74577;SDS011;63173;49.086;33.418;2023-06-10T03:15:15;8.40;;;4.10;;
74577;SDS011;63173;49.086;33.418;2023-06-10T03:17:41;7.60;;;3.88;;
74577;SDS011;63173;49.086;33.418;2023-06-10T03:20:06;9.32;;;4.22;;
74577;SDS011;63173;49.086;33.418;2023-06-10T03:22:35;9.45;;;3.92;;
74577;SDS011;63173;49.086;33.418;2023-06-10T03:25:01;9.38;;;3.97;;
74577;SDS011;63173;49.086;33.418;2023-06-10T03:27:26;10.88;;;4.00;;
74577;SDS011;63173;49.086;33.418;2023-06-10T03:29:52;12.10;;;4.28;;
74577;SDS011;63173;49.086;33.418;2023-06-10T03:32:17;10.25;;;4.30;;
74577;SDS011;63173;49.086;33.418;2023-06-10T03:34:43;15.15;;;4.65;;
74577;SDS011;63173;49.086;33.418;2023-06-10T03:37:10;14.60;;;5.03;;
74577;SDS011;63173;49.086;33.418;2023-06-10T03:39:35;12.15;;;4.30;;
74577;SDS011;63173;49.086;33.418;2023-06-10T03:42:01;15.77;;;5.03;;
74577;SDS011;63173;49.086;33.418;2023-06-10T03:44:26;18.00;;;6.70;;
74577;SDS011;63173;49.086;33.418;2023-06-10T03:46:52;20.08;;;7.35;;
74577;SDS011;63173;49.086;33.418;2023-06-10T03:49:19;15.90;;;7.18;;
74577;SDS011;63173;49.086;33.418;2023-06-10T03:51:44;25.20;;;9.55;;
74577;SDS011;63173;49.086;33.418;2023-06-10T03:54:10;28.00;;;9.27;;
74577;SDS011;63173;49.086;33.418;2023-06-10T03:56:35;24.33;;;9.88;;
74577;SDS011;63173;49.086;33.418;2023-06-10T03:59:01;28.50;;;9.65;;
74577;SDS011;63173;49.086;33.418;2023-06-10T04:01:26;24.67;;;9.88;;
74577;SDS011;63173;49.086;33.418;2023-06-10T04:03:52;20.02;;;9.02;;
74577;SDS011;63173;49.086;33.418;2023-06-10T04:06:19;18.77;;;8.85;;
74577;SDS011;63173;49.086;33.418;2023-06-10T04:08:45;19.55;;;8.93;;
74577;SDS011;63173;49.086;33.418;2023-06-10T04:11:10;19.17;;;7.68;;
74577;SDS011;63173;49.086;33.418;2023-06-10T04:13:35;18.88;;;6.53;;
74577;SDS011;63173;49.086;33.418;2023-06-10T04:16:01;12.85;;;5.90;;
74577;SDS011;63173;49.086;33.418;2023-06-10T04:18:27;16.45;;;5.63;;
74577;SDS011;63173;49.086;33.418;2023-06-10T04:20:53;13.57;;;5.80;;
74577;SDS011;63173;49.086;33.418;2023-06-10T04:23:19;11.65;;;4.68;;
74577;SDS011;63173;49.086;33.418;2023-06-10T04:25:44;11.55;;;4.45;;
74577;SDS011;63173;49.086;33.418;2023-06-10T04:28:11;11.15;;;4.72;;
74577;SDS011;63173;49.086;33.418;2023-06-10T04:30:36;12.00;;;5.35;;
74577;SDS011;63173;49.086;33.418;2023-06-10T04:33:01;9.15;;;4.72;;
74577;SDS011;63173;49.086;33.418;2023-06-10T04:35:27;13.35;;;5.55;;
74577;SDS011;63173;49.086;33.418;2023-06-10T04:37:53;15.93;;;5.38;;
74577;SDS011;63173;49.086;33.418;2023-06-10T04:40:18;22.17;;;5.82;;
74577;SDS011;63173;49.086;33.418;2023-06-10T04:42:44;16.30;;;5.38;;
74577;SDS011;63173;49.086;33.418;2023-06-10T04:45:10;14.68;;;6.00;;
74577;SDS011;63173;49.086;33.418;2023-06-10T04:47:35;14.35;;;5.90;;
74577;SDS011;63173;49.086;33.418;2023-06-10T04:50:01;19.55;;;5.85;;
74577;SDS011;63173;49.086;33.418;2023-06-10T04:52:27;14.63;;;5.53;;
74577;SDS011;63173;49.086;33.418;2023-06-10T04:54:53;15.07;;;4.85;;
74577;SDS011;63173;49.086;33.418;2023-06-10T04:57:19;15.45;;;5.10;;
74577;SDS011;63173;49.086;33.418;2023-06-10T04:59:45;9.82;;;4.75;;
74577;SDS011;63173;49.086;33.418;2023-06-10T05:02:11;9.85;;;4.22;;
74577;SDS011;63173;49.086;33.418;2023-06-10T05:04:36;9.35;;;4.45;;
74577;SDS011;63173;49.086;33.418;2023-06-10T05:07:02;8.27;;;4.03;;
74577;SDS011;63173;49.086;33.418;2023-06-10T05:09:27;14.10;;;6.97;;
74577;SDS011;63173;49.086;33.418;2023-06-10T05:11:53;8.00;;;4.35;;
74577;SDS011;63173;49.086;33.418;2023-06-10T05:14:19;18.63;;;4.05;;
74577;SDS011;63173;49.086;33.418;2023-06-10T05:16:46;11.43;;;4.05;;
74577;SDS011;63173;49.086;33.418;2023-06-10T05:19:11;10.15;;;4.20;;
74577;SDS011;63173;49.086;33.418;2023-06-10T05:21:37;13.48;;;4.60;;
74577;SDS011;63173;49.086;33.418;2023-06-10T05:24:02;10.05;;;4.22;;
74577;SDS011;63173;49.086;33.418;2023-06-10T05:26:28;10.65;;;3.92;;
74577;SDS011;63173;49.086;33.418;2023-06-10T05:28:54;16.60;;;4.30;;
74577;SDS011;63173;49.086;33.418;2023-06-10T05:31:19;12.82;;;4.32;;
74577;SDS011;63173;49.086;33.418;2023-06-10T05:33:45;13.20;;;4.28;;
74577;SDS011;63173;49.086;33.418;2023-06-10T05:36:10;9.10;;;4.28;;
74577;SDS011;63173;49.086;33.418;2023-06-10T05:38:35;17.17;;;4.10;;
74577;SDS011;63173;49.086;33.418;2023-06-10T05:41:01;12.93;;;3.63;;
74577;SDS011;63173;49.086;33.418;2023-06-10T05:43:26;8.18;;;4.10;;
74577;SDS011;63173;49.086;33.418;2023-06-10T05:45:52;20.52;;;4.38;;
74577;SDS011;63173;49.086;33.418;2023-06-10T05:48:17;10.85;;;3.72;;
74577;SDS011;63173;49.086;33.418;2023-06-10T05:50:44;10.25;;;4.10;;
74577;SDS011;63173;49.086;33.418;2023-06-10T05:53:13;9.40;;;3.55;;
74577;SDS011;63173;49.086;33.418;2023-06-10T05:55:45;6.50;;;3.55;;
74577;SDS011;63173;49.086;33.418;2023-06-10T05:58:11;8.52;;;3.30;;
74577;SDS011;63173;49.086;33.418;2023-06-10T06:00:39;9.73;;;3.58;;
74577;SDS011;63173;49.086;33.418;2023-06-10T06:03:06;14.15;;;5.72;;
74577;SDS011;63173;49.086;33.418;2023-06-10T06:05:33;10.38;;;3.30;;
74577;SDS011;63173;49.086;33.418;2023-06-10T06:08:03;7.93;;;3.28;;
74577;SDS011;63173;49.086;33.418;2023-06-10T06:10:29;8.25;;;3.38;;
74577;SDS011;63173;49.086;33.418;2023-06-10T06:12:55;8.18;;;3.30;;
74577;SDS011;63173;49.086;33.418;2023-06-10T06:15:20;10.13;;;3.35;;
74577;SDS011;63173;49.086;33.418;2023-06-10T06:17:46;8.68;;;3.90;;
74577;SDS011;63173;49.086;33.418;2023-06-10T06:20:11;8.75;;;3.00;;
74577;SDS011;63173;49.086;33.418;2023-06-10T06:22:37;7.25;;;3.17;;
74577;SDS011;63173;49.086;33.418;2023-06-10T06:25:02;12.85;;;3.25;;
74577;SDS011;63173;49.086;33.418;2023-06-10T06:27:28;7.45;;;3.47;;
74577;SDS011;63173;49.086;33.418;2023-06-10T06:29:53;7.22;;;3.42;;
74577;SDS011;63173;49.086;33.418;2023-06-10T06:32:19;8.32;;;3.42;;
74577;SDS011;63173;49.086;33.418;2023-06-10T06:34:45;8.38;;;2.83;;
74577;SDS011;63173;49.086;33.418;2023-06-10T06:37:11;10.18;;;3.30;;
74577;SDS011;63173;49.086;33.418;2023-06-10T06:39:36;7.70;;;3.55;;
74577;SDS011;63173;49.086;33.418;2023-06-10T06:42:01;17.58;;;4.38;;
74577;SDS011;63173;49.086;33.418;2023-06-10T06:44:27;9.68;;;3.30;;
74577;SDS011;63173;49.086;33.418;2023-06-10T06:46:53;6.38;;;3.50;;
74577;SDS011;63173;49.086;33.418;2023-06-10T06:49:18;6.40;;;3.30;;
74577;SDS011;63173;49.086;33.418;2023-06-10T06:51:44;11.35;;;2.83;;
74577;SDS011;63173;49.086;33.418;2023-06-10T06:54:09;5.47;;;3.05;;
74577;SDS011;63173;49.086;33.418;2023-06-10T06:56:34;10.73;;;3.15;;
74577;SDS011;63173;49.086;33.418;2023-06-10T06:59:00;11.82;;;3.67;;
74577;SDS011;63173;49.086;33.418;2023-06-10T07:01:25;8.88;;;3.30;;
74577;SDS011;63173;49.086;33.418;2023-06-10T07:03:51;11.63;;;3.30;;
74577;SDS011;63173;49.086;33.418;2023-06-10T07:06:16;5.40;;;3.00;;
74577;SDS011;63173;49.086;33.418;2023-06-10T07:08:41;8.80;;;3.22;;
74577;SDS011;63173;49.086;33.418;2023-06-10T07:11:07;7.50;;;3.15;;
74577;SDS011;63173;49.086;33.418;2023-06-10T07:13:32;6.57;;;3.22;;
74577;SDS011;63173;49.086;33.418;2023-06-10T07:15:58;13.52;;;3.03;;
74577;SDS011;63173;49.086;33.418;2023-06-10T07:18:23;10.23;;;3.55;;
74577;SDS011;63173;49.086;33.418;2023-06-10T07:20:49;11.43;;;3.13;;
74577;SDS011;63173;49.086;33.418;2023-06-10T07:23:14;7.75;;;3.20;;
74577;SDS011;63173;49.086;33.418;2023-06-10T07:25:41;9.02;;;3.33;;
74577;SDS011;63173;49.086;33.418;2023-06-10T07:28:06;12.23;;;3.55;;
74577;SDS011;63173;49.086;33.418;2023-06-10T07:30:32;6.72;;;2.97;;
74577;SDS011;63173;49.086;33.418;2023-06-10T07:32:57;9.02;;;3.22;;
74577;SDS011;63173;49.086;33.418;2023-06-10T07:35:23;7.75;;;2.85;;
74577;SDS011;63173;49.086;33.418;2023-06-10T07:37:48;7.28;;;2.58;;
74577;SDS011;63173;49.086;33.418;2023-06-10T07:40:14;13.30;;;2.90;;
74577;SDS011;63173;49.086;33.418;2023-06-10T07:42:39;7.38;;;3.20;;
74577;SDS011;63173;49.086;33.418;2023-06-10T07:45:05;10.32;;;3.03;;
74577;SDS011;63173;49.086;33.418;2023-06-10T07:47:32;6.40;;;2.85;;
74577;SDS011;63173;49.086;33.418;2023-06-10T07:49:58;9.20;;;3.05;;
74577;SDS011;63173;49.086;33.418;2023-06-10T07:52:24;5.82;;;2.67;;
74577;SDS011;63173;49.086;33.418;2023-06-10T07:54:49;8.25;;;2.95;;
74577;SDS011;63173;49.086;33.418;2023-06-10T07:57:15;6.80;;;2.97;;
74577;SDS011;63173;49.086;33.418;2023-06-10T07:59:40;8.93;;;3.20;;
74577;SDS011;63173;49.086;33.418;2023-06-10T08:02:06;9.38;;;3.22;;
74577;SDS011;63173;49.086;33.418;2023-06-10T08:04:31;11.90;;;2.90;;
74577;SDS011;63173;49.086;33.418;2023-06-10T08:06:57;6.95;;;2.75;;
74577;SDS011;63173;49.086;33.418;2023-06-10T08:09:22;12.68;;;3.05;;
74577;SDS011;63173;49.086;33.418;2023-06-10T08:11:48;8.15;;;2.80;;
74577;SDS011;63173;49.086;33.418;2023-06-10T08:14:14;13.10;;;3.10;;
74577;SDS011;63173;49.086;33.418;2023-06-10T08:16:41;12.30;;;3.17;;
74577;SDS011;63173;49.086;33.418;2023-06-10T08:19:06;9.18;;;2.30;;
74577;SDS011;63173;49.086;33.418;2023-06-10T08:21:34;8.27;;;2.78;;
74577;SDS011;63173;49.086;33.418;2023-06-10T08:23:59;4.80;;;2.13;;
74577;SDS011;63173;49.086;33.418;2023-06-10T08:26:25;11.48;;;3.25;;
74577;SDS011;63173;49.086;33.418;2023-06-10T08:28:50;14.70;;;2.70;;
74577;SDS011;63173;49.086;33.418;2023-06-10T08:31:15;6.22;;;2.40;;
74577;SDS011;63173;49.086;33.418;2023-06-10T08:33:41;5.05;;;2.25;;
74577;SDS011;63173;49.086;33.418;2023-06-10T08:36:07;4.95;;;2.42;;
74577;SDS011;63173;49.086;33.418;2023-06-10T08:38:33;7.68;;;2.58;;
74577;SDS011;63173;49.086;33.418;2023-06-10T08:40:59;7.53;;;2.70;;
74577;SDS011;63173;49.086;33.418;2023-06-10T08:46:08;10.55;;;2.65;;
74577;SDS011;63173;49.086;33.418;2023-06-10T08:48:35;9.05;;;2.63;;
74577;SDS011;63173;49.086;33.418;2023-06-10T08:51:07;5.93;;;2.38;;
74577;SDS011;63173;49.086;33.418;2023-06-10T08:53:36;5.00;;;2.20;;
74577;SDS011;63173;49.086;33.418;2023-06-10T08:56:02;9.32;;;2.63;;
74577;SDS011;63173;49.086;33.418;2023-06-10T08:58:31;9.32;;;2.38;;
74577;SDS011;63173;49.086;33.418;2023-06-10T09:00:58;8.98;;;2.63;;
74577;SDS011;63173;49.086;33.418;2023-06-10T09:03:24;7.43;;;2.28;;
74577;SDS011;63173;49.086;33.418;2023-06-10T09:05:50;5.45;;;2.40;;
74577;SDS011;63173;49.086;33.418;2023-06-10T09:08:16;9.18;;;2.70;;
74577;SDS011;63173;49.086;33.418;2023-06-10T09:10:42;9.35;;;2.22;;
74577;SDS011;63173;49.086;33.418;2023-06-10T09:13:07;4.57;;;2.15;;
74577;SDS011;63173;49.086;33.418;2023-06-10T09:15:33;7.47;;;2.22;;
74577;SDS011;63173;49.086;33.418;2023-06-10T09:17:59;4.18;;;2.10;;
74577;SDS011;63173;49.086;33.418;2023-06-10T09:20:25;5.80;;;2.08;;
74577;SDS011;63173;49.086;33.418;2023-06-10T09:22:50;13.48;;;2.90;;
74577;SDS011;63173;49.086;33.418;2023-06-10T09:25:16;7.50;;;2.38;;
74577;SDS011;63173;49.086;33.418;2023-06-10T09:30:23;7.90;;;2.25;;
74577;SDS011;63173;49.086;33.418;2023-06-10T09:32:51;7.35;;;2.30;;
74577;SDS011;63173;49.086;33.418;2023-06-10T09:35:18;5.93;;;2.70;;
74577;SDS011;63173;49.086;33.418;2023-06-10T09:37:43;11.18;;;2.30;;
74577;SDS011;63173;49.086;33.418;2023-06-10T09:40:09;13.95;;;2.60;;
74577;SDS011;63173;49.086;33.418;2023-06-10T09:42:36;7.05;;;2.47;;
74577;SDS011;63173;49.086;33.418;2023-06-10T09:45:03;3.78;;;2.30;;
74577;SDS011;63173;49.086;33.418;2023-06-10T09:47:30;5.88;;;2.70;;
74577;SDS011;63173;49.086;33.418;2023-06-10T09:49:55;9.95;;;2.50;;
74577;SDS011;63173;49.086;33.418;2023-06-10T09:52:21;12.70;;;2.80;;
74577;SDS011;63173;49.086;33.418;2023-06-10T09:54:48;11.50;;;2.50;;
74577;SDS011;63173;49.086;33.418;2023-06-10T09:57:13;7.43;;;2.67;;
74577;SDS011;63173;49.086;33.418;2023-06-10T09:59:41;11.93;;;2.92;;
74577;SDS011;63173;49.086;33.418;2023-06-10T10:02:09;9.88;;;2.22;;
74577;SDS011;63173;49.086;33.418;2023-06-10T10:04:39;12.88;;;2.25;;
74577;SDS011;63173;49.086;33.418;2023-06-10T10:07:04;8.02;;;2.35;;
74577;SDS011;63173;49.086;33.418;2023-06-10T10:09:32;6.25;;;1.95;;
74577;SDS011;63173;49.086;33.418;2023-06-10T10:11:57;4.20;;;2.10;;
74577;SDS011;63173;49.086;33.418;2023-06-10T10:14:25;10.52;;;2.30;;
74577;SDS011;63173;49.086;33.418;2023-06-10T10:16:54;8.57;;;2.10;;
74577;SDS011;63173;49.086;33.418;2023-06-10T10:19:23;6.47;;;2.13;;
74577;SDS011;63173;49.086;33.418;2023-06-10T10:21:54;9.45;;;1.90;;
74577;SDS011;63173;49.086;33.418;2023-06-10T10:24:26;15.63;;;2.30;;
74577;SDS011;63173;49.086;33.418;2023-06-10T10:26:59;11.32;;;2.50;;
74577;SDS011;63173;49.086;33.418;2023-06-10T10:29:31;13.85;;;2.30;;
74577;SDS011;63173;49.086;33.418;2023-06-10T10:32:01;10.38;;;2.40;;
74577;SDS011;63173;49.086;33.418;2023-06-10T10:34:48;11.63;;;2.25;;
74577;SDS011;63173;49.086;33.418;2023-06-10T10:37:19;13.48;;;2.50;;
74577;SDS011;63173;49.086;33.418;2023-06-10T10:39:45;7.07;;;2.30;;
74577;SDS011;63173;49.086;33.418;2023-06-10T10:42:10;9.05;;;2.63;;
74577;SDS011;63173;49.086;33.418;2023-06-10T10:44:37;8.48;;;2.10;;
74577;SDS011;63173;49.086;33.418;2023-06-10T10:47:04;6.65;;;2.40;;
74577;SDS011;63173;49.086;33.418;2023-06-10T10:49:34;11.25;;;2.45;;
74577;SDS011;63173;49.086;33.418;2023-06-10T10:52:02;7.05;;;2.35;;
74577;SDS011;63173;49.086;33.418;2023-06-10T10:54:34;9.48;;;2.00;;
74577;SDS011;63173;49.086;33.418;2023-06-10T10:59:53;17.20;;;2.70;;
74577;SDS011;63173;49.086;33.418;2023-06-10T11:05:03;11.43;;;2.45;;
74577;SDS011;63173;49.086;33.418;2023-06-10T11:07:30;5.82;;;2.17;;
74577;SDS011;63173;49.086;33.418;2023-06-10T11:15:11;5.70;;;1.92;;
74577;SDS011;63173;49.086;33.418;2023-06-10T11:17:37;13.13;;;2.30;;
74577;SDS011;63173;49.086;33.418;2023-06-10T11:20:03;12.63;;;2.33;;
74577;SDS011;63173;49.086;33.418;2023-06-10T11:22:28;11.23;;;2.28;;
74577;SDS011;63173;49.086;33.418;2023-06-10T11:24:54;17.25;;;2.40;;
74577;SDS011;63173;49.086;33.418;2023-06-10T11:27:20;10.98;;;2.47;;
74577;SDS011;63173;49.086;33.418;2023-06-10T11:32:32;9.73;;;1.90;;
74577;SDS011;63173;49.086;33.418;2023-06-10T11:34:59;10.70;;;2.10;;
74577;SDS011;63173;49.086;33.418;2023-06-10T11:37:27;7.20;;;2.40;;
74577;SDS011;63173;49.086;33.418;2023-06-10T11:39:56;9.88;;;2.45;;
74577;SDS011;63173;49.086;33.418;2023-06-10T11:42:22;10.68;;;2.50;;
74577;SDS011;63173;49.086;33.418;2023-06-10T11:44:51;15.10;;;4.25;;
74577;SDS011;63173;49.086;33.418;2023-06-10T11:47:18;15.35;;;6.72;;
74577;SDS011;63173;49.086;33.418;2023-06-10T11:49:45;12.25;;;2.20;;
74577;SDS011;63173;49.086;33.418;2023-06-10T11:52:11;7.60;;;2.00;;
74577;SDS011;63173;49.086;33.418;2023-06-10T11:54:37;10.60;;;2.90;;
74577;SDS011;63173;49.086;33.418;2023-06-10T11:57:03;7.63;;;2.22;;
74577;SDS011;63173;49.086;33.418;2023-06-10T11:59:29;12.23;;;2.13;;
74577;SDS011;63173;49.086;33.418;2023-06-10T12:13:01;9.73;;;2.63;;
74577;SDS011;63173;49.086;33.418;2023-06-10T12:15:26;18.38;;;2.20;;
74577;SDS011;63173;49.086;33.418;2023-06-10T12:17:53;13.65;;;2.60;;
74577;SDS011;63173;49.086;33.418;2023-06-10T12:20:29;11.60;;;2.58;;
74577;SDS011;63173;49.086;33.418;2023-06-10T12:22:57;11.07;;;2.58;;
74577;SDS011;63173;49.086;33.418;2023-06-10T12:25:27;4.82;;;2.17;;
74577;SDS011;63173;49.086;33.418;2023-06-10T12:27:54;14.75;;;2.35;;
74577;SDS011;63173;49.086;33.418;2023-06-10T12:30:25;8.45;;;2.28;;
74577;SDS011;63173;49.086;33.418;2023-06-10T12:32:51;10.70;;;2.25;;
74577;SDS011;63173;49.086;33.418;2023-06-10T12:35:18;13.60;;;2.58;;
74577;SDS011;63173;49.086;33.418;2023-06-10T12:38:02;15.65;;;2.78;;
74577;SDS011;63173;49.086;33.418;2023-06-10T12:40:32;16.17;;;2.63;;
74577;SDS011;63173;49.086;33.418;2023-06-10T12:43:00;11.55;;;2.40;;
74577;SDS011;63173;49.086;33.418;2023-06-10T12:45:29;11.05;;;1.77;;
74577;SDS011;63173;49.086;33.418;2023-06-10T12:48:08;15.10;;;2.40;;
74577;SDS011;63173;49.086;33.418;2023-06-10T12:50:38;10.80;;;2.35;;
74577;SDS011;63173;49.086;33.418;2023-06-10T12:53:04;9.82;;;2.38;;
74577;SDS011;63173;49.086;33.418;2023-06-10T12:55:31;12.38;;;2.58;;
74577;SDS011;63173;49.086;33.418;2023-06-10T12:57:57;16.70;;;2.45;;
74577;SDS011;63173;49.086;33.418;2023-06-10T13:00:23;9.00;;;2.00;;
74577;SDS011;63173;49.086;33.418;2023-06-10T13:05:16;14.75;;;2.47;;
74577;SDS011;63173;49.086;33.418;2023-06-10T13:07:43;18.08;;;2.72;;
74577;SDS011;63173;49.086;33.418;2023-06-10T13:10:09;8.20;;;2.45;;
74577;SDS011;63173;49.086;33.418;2023-06-10T13:12:35;15.77;;;2.72;;
74577;SDS011;63173;49.086;33.418;2023-06-10T13:15:01;6.75;;;2.17;;
74577;SDS011;63173;49.086;33.418;2023-06-10T13:17:27;11.82;;;2.80;;
74577;SDS011;63173;49.086;33.418;2023-06-10T13:19:53;14.55;;;3.20;;
74577;SDS011;63173;49.086;33.418;2023-06-10T13:22:18;11.00;;;2.95;;
74577;SDS011;63173;49.086;33.418;2023-06-10T13:24:45;12.32;;;2.65;;
74577;SDS011;63173;49.086;33.418;2023-06-10T13:27:11;11.05;;;2.03;;
74577;SDS011;63173;49.086;33.418;2023-06-10T13:29:39;7.22;;;2.03;;
74577;SDS011;63173;49.086;33.418;2023-06-10T13:32:05;7.82;;;2.00;;
74577;SDS011;63173;49.086;33.418;2023-06-10T13:34:31;9.80;;;2.10;;
74577;SDS011;63173;49.086;33.418;2023-06-10T13:36:56;14.50;;;2.20;;
74577;SDS011;63173;49.086;33.418;2023-06-10T13:39:22;11.75;;;2.78;;
74577;SDS011;63173;49.086;33.418;2023-06-10T13:41:47;9.48;;;2.25;;
74577;SDS011;63173;49.086;33.418;2023-06-10T13:44:13;8.45;;;2.22;;
74577;SDS011;63173;49.086;33.418;2023-06-10T13:46:38;14.45;;;2.47;;
74577;SDS011;63173;49.086;33.418;2023-06-10T13:49:04;11.43;;;2.70;;
74577;SDS011;63173;49.086;33.418;2023-06-10T13:51:29;11.10;;;2.20;;
74577;SDS011;63173;49.086;33.418;2023-06-10T13:53:54;10.48;;;2.50;;
74577;SDS011;63173;49.086;33.418;2023-06-10T13:56:20;11.13;;;2.40;;
74577;SDS011;63173;49.086;33.418;2023-06-10T13:58:45;11.55;;;2.38;;
74577;SDS011;63173;49.086;33.418;2023-06-10T14:01:11;9.05;;;2.42;;
74577;SDS011;63173;49.086;33.418;2023-06-10T14:03:36;17.45;;;2.65;;
74577;SDS011;63173;49.086;33.418;2023-06-10T14:06:02;8.18;;;2.33;;
74577;SDS011;63173;49.086;33.418;2023-06-10T14:08:28;10.13;;;2.30;;
74577;SDS011;63173;49.086;33.418;2023-06-10T14:10:55;8.52;;;2.47;;
74577;SDS011;63173;49.086;33.418;2023-06-10T14:13:20;11.40;;;2.33;;
74577;SDS011;63173;49.086;33.418;2023-06-10T14:15:46;12.18;;;2.17;;
74577;SDS011;63173;49.086;33.418;2023-06-10T14:18:11;9.57;;;2.00;;
74577;SDS011;63173;49.086;33.418;2023-06-10T14:20:37;7.65;;;1.92;;
74577;SDS011;63173;49.086;33.418;2023-06-10T14:23:02;10.25;;;2.55;;
74577;SDS011;63173;49.086;33.418;2023-06-10T14:25:28;10.90;;;2.13;;
74577;SDS011;63173;49.086;33.418;2023-06-10T14:27:53;19.20;;;2.40;;
74577;SDS011;63173;49.086;33.418;2023-06-10T14:30:19;8.23;;;1.85;;
74577;SDS011;63173;49.086;33.418;2023-06-10T14:32:44;10.25;;;2.22;;
74577;SDS011;63173;49.086;33.418;2023-06-10T14:35:10;10.82;;;2.10;;
74577;SDS011;63173;49.086;33.418;2023-06-10T14:37:36;6.32;;;2.40;;
74577;SDS011;63173;49.086;33.418;2023-06-10T14:40:02;13.90;;;2.33;;
74577;SDS011;63173;49.086;33.418;2023-06-10T14:42:29;5.85;;;2.22;;
74577;SDS011;63173;49.086;33.418;2023-06-10T14:44:54;18.00;;;2.38;;
74577;SDS011;63173;49.086;33.418;2023-06-10T14:47:19;11.45;;;2.30;;
74577;SDS011;63173;49.086;33.418;2023-06-10T14:49:45;6.15;;;2.40;;
74577;SDS011;63173;49.086;33.418;2023-06-10T14:52:10;8.75;;;1.73;;
74577;SDS011;63173;49.086;33.418;2023-06-10T14:54:36;9.88;;;2.22;;
74577;SDS011;63173;49.086;33.418;2023-06-10T14:57:01;6.70;;;1.80;;
74577;SDS011;63173;49.086;33.418;2023-06-10T14:59:26;7.68;;;2.00;;